MiSS Donna — WDG2382 — position and weather

sailwx.info

Track history (hours):
 
Tides and Currents Weather Stations Pressure Air Temp Water Temp Dewpoint Dewpoint Depression Visibility Wind Speed Wind Dir Waves Ship Positions

MiSS Donna

Owner: OCEAN MARINE BOAT RENTALS,LLC, MORGAN CITY, LA. More information available from US FCC via Universal Licensing System and Coast Guard Vessel Documentation Center.

Last reported at 2017-Mar-18 19:06 UTC. Time now 2017-Mar-23 12:32 UTC.
Position N 39°13' W 076°35'.

Length 21 m; draft 2.7 m.

Type: Towing. MMSI: 367515090.

Date/timePositionNaut miles runAvg speedWind from/ knotsBaromVisibWave heightAir tempDewpointWater temp
2017-Mar-18 19:06N 39°13' W 076°35'2 0.6
2017-Mar-18 15:31N 39°15' W 076°35'0 0.0
2017-Mar-18 14:26N 39°15' W 076°35'0 0.0
2017-Mar-18 13:14N 39°15' W 076°35'0 0.0
2017-Mar-18 12:16N 39°15' W 076°35'0 0.0
2017-Mar-18 11:26N 39°15' W 076°35'1 0.9
2017-Mar-18 10:31N 39°16' W 076°35'3 0.5
2017-Mar-18 04:24N 39°13' W 076°35'0 0.0
2017-Mar-17 19:22N 39°13' W 076°35'3 3.4
2017-Mar-17 18:33N 39°15' W 076°35'0 0.4
2017-Mar-17 17:30N 39°16' W 076°35'1 1.0
2017-Mar-17 16:30N 39°16' W 076°36'0 0.1
2017-Mar-17 15:30N 39°16' W 076°36'0 0.0
2017-Mar-17 14:30N 39°16' W 076°36'0 0.0
2017-Mar-17 13:33N 39°16' W 076°36'4 0.2
2017-Mar-16 21:03N 39°13' W 076°35'2 3.1
2017-Mar-16 20:20N 39°15' W 076°35'0 0.0
2017-Mar-16 19:30N 39°15' W 076°35'1 0.5
2017-Mar-16 18:30N 39°16' W 076°35'3 0.6
2017-Mar-16 13:31N 39°13' W 076°35'0 0.0
2017-Mar-16 12:04N 39°13' W 076°35'0 0.4
2017-Mar-16 11:32N 39°13' W 076°35'2 2.1
2017-Mar-16 10:33N 39°15' W 076°35'2 0.1
2017-Mar-15 17:32N 39°13' W 076°35'0 0.0
2017-Mar-15 16:33N 39°13' W 076°35'0 0.0
2017-Mar-15 15:33N 39°13' W 076°35'0 0.0
2017-Mar-15 14:33N 39°13' W 076°35'0 0.0
2017-Mar-15 13:33N 39°13' W 076°35'0 0.0
2017-Mar-15 12:33N 39°13' W 076°35'0 0.0
2017-Mar-15 11:33N 39°13' W 076°35'0 0.0
2017-Mar-15 10:33N 39°13' W 076°35'0 0.0
2017-Mar-15 09:33N 39°13' W 076°35'0 0.0
2017-Mar-15 08:33N 39°13' W 076°35'0 0.0
2017-Mar-15 07:33N 39°13' W 076°35'0 0.0
2017-Mar-15 06:33N 39°13' W 076°35'0 0.0
2017-Mar-15 05:33N 39°13' W 076°35'0 0.0
2017-Mar-15 04:23N 39°13' W 076°35'0 0.0
2017-Mar-15 03:30N 39°13' W 076°35'0 0.0
2017-Mar-15 00:26N 39°13' W 076°35'0 0.0
2017-Mar-14 16:32N 39°13' W 076°34'0 0.0
2017-Mar-14 15:33N 39°13' W 076°34'0 0.0
2017-Mar-14 14:33N 39°13' W 076°34'3 2.8
2017-Mar-14 13:33N 39°15' W 076°35'3 0.2
2017-Mar-14 01:22N 39°13' W 076°35'0 0.0
2017-Mar-14 00:29N 39°13' W 076°35'0 0.0
2017-Mar-13 23:15N 39°13' W 076°35'2 0.8
2017-Mar-13 20:33N 39°15' W 076°34'1 0.9
2017-Mar-13 19:30N 39°15' W 076°35'1 0.7
2017-Mar-13 18:33N 39°16' W 076°35'2 2.2
2017-Mar-13 17:30N 39°13' W 076°34'1 0.3
2017-Mar-13 15:33N 39°13' W 076°35'2 2.3
2017-Mar-13 14:27N 39°15' W 076°35'0 0.3
2017-Mar-13 13:33N 39°15' W 076°34'2 1.1
2017-Mar-13 12:08N 39°14' W 076°34'1 1.7
2017-Mar-13 11:33N 39°13' W 076°35'0 0.0
2017-Mar-13 08:14N 39°13' W 076°35'0 0.0
2017-Mar-13 07:33N 39°13' W 076°35'0 0.0
2017-Mar-13 06:28N 39°13' W 076°35'0 0.0
2017-Mar-13 04:20N 39°13' W 076°35'0 0.0
2017-Mar-13 03:21N 39°13' W 076°35'0 0.0
2017-Mar-13 02:05N 39°13' W 076°35'0 0.0
2017-Mar-13 01:33N 39°13' W 076°35'0 0.0
2017-Mar-13 00:31N 39°13' W 076°35'0 0.0
2017-Mar-12 23:28N 39°13' W 076°35'0 0.0
2017-Mar-12 19:04N 39°13' W 076°35'0 0.0
2017-Mar-12 17:16N 39°13' W 076°35'0 0.0
2017-Mar-12 16:15N 39°13' W 076°35'0 0.0
2017-Mar-12 15:23N 39°13' W 076°35'0 0.0
2017-Mar-12 14:30N 39°13' W 076°35'0 0.0
2017-Mar-12 13:32N 39°13' W 076°35'0 0.0
2017-Mar-12 12:33N 39°13' W 076°35'0 0.0
2017-Mar-12 11:29N 39°13' W 076°35'0 0.0
2017-Mar-12 10:26N 39°13' W 076°35'0 0.0
2017-Mar-12 09:32N 39°13' W 076°35'0 0.0
2017-Mar-12 08:31N 39°13' W 076°35'0 0.0
2017-Mar-12 07:28N 39°13' W 076°35'0 0.0
2017-Mar-12 04:30N 39°13' W 076°35'0 0.0
2017-Mar-12 02:25N 39°13' W 076°35'0 0.0
2017-Mar-12 01:27N 39°13' W 076°35'0 0.0
2017-Mar-11 22:24N 39°13' W 076°35'0 0.0
2017-Mar-11 15:20N 39°13' W 076°35'0 0.0
2017-Mar-11 00:16N 39°13' W 076°35'0 0.0
2017-Mar-10 20:17N 39°13' W 076°35'2 2.8
2017-Mar-10 19:32N 39°15' W 076°34'2 1.6
2017-Mar-10 18:33N 39°16' W 076°35'1 0.8
2017-Mar-10 17:32N 39°15' W 076°35'0 0.0
2017-Mar-10 16:33N 39°15' W 076°35'0 0.0
2017-Mar-10 15:33N 39°15' W 076°35'0 0.0
2017-Mar-10 14:33N 39°15' W 076°35'3 3.4
2017-Mar-10 13:33N 39°13' W 076°31'4 3.4
2017-Mar-10 12:19N 39°16' W 076°35'0 0.4
2017-Mar-10 11:32N 39°15' W 076°35'3 2.8
2017-Mar-10 10:32N 39°13' W 076°35'0 0.0
2017-Mar-09 13:31N 39°13' W 076°35'0 0.0
2017-Mar-08 21:22N 39°13' W 076°35'2 2.6
2017-Mar-08 20:33N 39°14' W 076°33'2 1.4
2017-Mar-08 19:23N 39°13' W 076°31'  
Track history (hours):
 
Tides and Currents Weather Stations Pressure Air Temp Water Temp Dewpoint Dewpoint Depression Visibility Wind Speed Wind Dir Waves Ship Positions

MiSS Donna

Owner: OCEAN MARINE BOAT RENTALS,LLC, MORGAN CITY, LA. More information available from US FCC via Universal Licensing System and Coast Guard Vessel Documentation Center.

Last reported at 2017-Mar-18 19:06 UTC. Time now 2017-Mar-23 12:32 UTC.
Position N 39°13' W 076°35'.

Length 21 m; draft 2.7 m.

Type: Towing. MMSI: 367515090.

Date/timePositionNaut miles runAvg speedWind from/ knotsBaromVisibWave heightAir tempDewpointWater temp
2017-Mar-18 19:06N 39°13' W 076°35'2 0.6
2017-Mar-18 15:31N 39°15' W 076°35'0 0.0
2017-Mar-18 14:26N 39°15' W 076°35'0 0.0
2017-Mar-18 13:14N 39°15' W 076°35'0 0.0
2017-Mar-18 12:16N 39°15' W 076°35'0 0.0
2017-Mar-18 11:26N 39°15' W 076°35'1 0.9
2017-Mar-18 10:31N 39°16' W 076°35'3 0.5
2017-Mar-18 04:24N 39°13' W 076°35'0 0.0
2017-Mar-17 19:22N 39°13' W 076°35'3 3.4
2017-Mar-17 18:33N 39°15' W 076°35'0 0.4
2017-Mar-17 17:30N 39°16' W 076°35'1 1.0
2017-Mar-17 16:30N 39°16' W 076°36'0 0.1
2017-Mar-17 15:30N 39°16' W 076°36'0 0.0
2017-Mar-17 14:30N 39°16' W 076°36'0 0.0
2017-Mar-17 13:33N 39°16' W 076°36'4 0.2
2017-Mar-16 21:03N 39°13' W 076°35'2 3.1
2017-Mar-16 20:20N 39°15' W 076°35'0 0.0
2017-Mar-16 19:30N 39°15' W 076°35'1 0.5
2017-Mar-16 18:30N 39°16' W 076°35'3 0.6
2017-Mar-16 13:31N 39°13' W 076°35'0 0.0
2017-Mar-16 12:04N 39°13' W 076°35'0 0.4
2017-Mar-16 11:32N 39°13' W 076°35'2 2.1
2017-Mar-16 10:33N 39°15' W 076°35'2 0.1
2017-Mar-15 17:32N 39°13' W 076°35'0 0.0
2017-Mar-15 16:33N 39°13' W 076°35'0 0.0
2017-Mar-15 15:33N 39°13' W 076°35'0 0.0
2017-Mar-15 14:33N 39°13' W 076°35'0 0.0
2017-Mar-15 13:33N 39°13' W 076°35'0 0.0
2017-Mar-15 12:33N 39°13' W 076°35'0 0.0
2017-Mar-15 11:33N 39°13' W 076°35'0 0.0
2017-Mar-15 10:33N 39°13' W 076°35'0 0.0
2017-Mar-15 09:33N 39°13' W 076°35'0 0.0
2017-Mar-15 08:33N 39°13' W 076°35'0 0.0
2017-Mar-15 07:33N 39°13' W 076°35'0 0.0
2017-Mar-15 06:33N 39°13' W 076°35'0 0.0
2017-Mar-15 05:33N 39°13' W 076°35'0 0.0
2017-Mar-15 04:23N 39°13' W 076°35'0 0.0
2017-Mar-15 03:30N 39°13' W 076°35'0 0.0
2017-Mar-15 00:26N 39°13' W 076°35'0 0.0
2017-Mar-14 16:32N 39°13' W 076°34'0 0.0
2017-Mar-14 15:33N 39°13' W 076°34'0 0.0
2017-Mar-14 14:33N 39°13' W 076°34'3 2.8
2017-Mar-14 13:33N 39°15' W 076°35'3 0.2
2017-Mar-14 01:22N 39°13' W 076°35'0 0.0
2017-Mar-14 00:29N 39°13' W 076°35'0 0.0
2017-Mar-13 23:15N 39°13' W 076°35'2 0.8
2017-Mar-13 20:33N 39°15' W 076°34'1 0.9
2017-Mar-13 19:30N 39°15' W 076°35'1 0.7
2017-Mar-13 18:33N 39°16' W 076°35'2 2.2
2017-Mar-13 17:30N 39°13' W 076°34'1 0.3
2017-Mar-13 15:33N 39°13' W 076°35'2 2.3
2017-Mar-13 14:27N 39°15' W 076°35'0 0.3
2017-Mar-13 13:33N 39°15' W 076°34'2 1.1
2017-Mar-13 12:08N 39°14' W 076°34'1 1.7
2017-Mar-13 11:33N 39°13' W 076°35'0 0.0
2017-Mar-13 08:14N 39°13' W 076°35'0 0.0
2017-Mar-13 07:33N 39°13' W 076°35'0 0.0
2017-Mar-13 06:28N 39°13' W 076°35'0 0.0
2017-Mar-13 04:20N 39°13' W 076°35'0 0.0
2017-Mar-13 03:21N 39°13' W 076°35'0 0.0
2017-Mar-13 02:05N 39°13' W 076°35'0 0.0
2017-Mar-13 01:33N 39°13' W 076°35'0 0.0
2017-Mar-13 00:31N 39°13' W 076°35'0 0.0
2017-Mar-12 23:28N 39°13' W 076°35'0 0.0
2017-Mar-12 19:04N 39°13' W 076°35'0 0.0
2017-Mar-12 17:16N 39°13' W 076°35'0 0.0
2017-Mar-12 16:15N 39°13' W 076°35'0 0.0
2017-Mar-12 15:23N 39°13' W 076°35'0 0.0
2017-Mar-12 14:30N 39°13' W 076°35'0 0.0
2017-Mar-12 13:32N 39°13' W 076°35'0 0.0
2017-Mar-12 12:33N 39°13' W 076°35'0 0.0
2017-Mar-12 11:29N 39°13' W 076°35'0 0.0
2017-Mar-12 10:26N 39°13' W 076°35'0 0.0
2017-Mar-12 09:32N 39°13' W 076°35'0 0.0
2017-Mar-12 08:31N 39°13' W 076°35'0 0.0
2017-Mar-12 07:28N 39°13' W 076°35'0 0.0
2017-Mar-12 04:30N 39°13' W 076°35'0 0.0
2017-Mar-12 02:25N 39°13' W 076°35'0 0.0
2017-Mar-12 01:27N 39°13' W 076°35'0 0.0
2017-Mar-11 22:24N 39°13' W 076°35'0 0.0
2017-Mar-11 15:20N 39°13' W 076°35'0 0.0
2017-Mar-11 00:16N 39°13' W 076°35'0 0.0
2017-Mar-10 20:17N 39°13' W 076°35'2 2.8
2017-Mar-10 19:32N 39°15' W 076°34'2 1.6
2017-Mar-10 18:33N 39°16' W 076°35'1 0.8
2017-Mar-10 17:32N 39°15' W 076°35'0 0.0
2017-Mar-10 16:33N 39°15' W 076°35'0 0.0
2017-Mar-10 15:33N 39°15' W 076°35'0 0.0
2017-Mar-10 14:33N 39°15' W 076°35'3 3.4
2017-Mar-10 13:33N 39°13' W 076°31'4 3.4
2017-Mar-10 12:19N 39°16' W 076°35'0 0.4
2017-Mar-10 11:32N 39°15' W 076°35'3 2.8
2017-Mar-10 10:32N 39°13' W 076°35'0 0.0
2017-Mar-09 13:31N 39°13' W 076°35'0 0.0
2017-Mar-08 21:22N 39°13' W 076°35'2 2.6
2017-Mar-08 20:33N 39°14' W 076°33'2 1.4
2017-Mar-08 19:23N 39°13' W 076°31'  

Dump ship's entire track history